Time;durP1;ratioP1;P1;durP2;ratioP2;P2;SDS_P1;SDS_P2;PMS_P1;PMS_P2;Temp;Humidity;BMP_temperature;BMP_pressure;BME280_temperature;BME280_humidity;BME280_pressure;Samples;Min_cycle;Max_cycle;Signal;HPM_P1;HPM_P2
2023/04/22 00:00:28;;;;;;;9.93;6.78;;;14.70;99.90;;;;;;7402821;19;19915;-77
2023/04/22 00:03:00;;;;;;;8.02;6.20;;;14.70;99.90;;;;;;7403245;19;19915;-76
2023/04/22 00:05:32;;;;;;;9.63;6.97;;;14.70;99.90;;;;;;7407582;19;19925;-77
2023/04/22 00:08:01;;;;;;;8.50;6.82;;;14.50;99.90;;;;;;7403436;19;19906;-77
2023/04/22 00:10:30;;;;;;;9.55;6.50;;;14.50;99.90;;;;;;7402585;19;20344;-77
2023/04/22 00:12:59;;;;;;;11.68;6.90;;;14.50;99.90;;;;;;7401081;19;19911;-77
2023/04/22 00:15:28;;;;;;;7.13;6.43;;;14.50;99.90;;;;;;7402697;19;19919;-76
2023/04/22 00:17:57;;;;;;;11.15;7.60;;;14.30;99.90;;;;;;7402588;19;19928;-77
2023/04/22 00:20:26;;;;;;;11.02;6.93;;;14.40;99.90;;;;;;7401638;19;19930;-77
2023/04/22 00:22:57;;;;;;;9.90;6.65;;;14.30;99.90;;;;;;7402699;19;19918;-77
2023/04/22 00:25:26;;;;;;;7.68;6.57;;;14.40;99.90;;;;;;7400618;19;20741;-77
2023/04/22 00:27:55;;;;;;;8.35;6.97;;;14.30;99.90;;;;;;7404154;19;20348;-77
2023/04/22 00:30:24;;;;;;;7.95;6.53;;;14.20;99.90;;;;;;7402054;19;19914;-77
2023/04/22 00:32:53;;;;;;;7.97;5.97;;;14.30;99.90;;;;;;7402731;19;20715;-77
2023/04/22 00:35:22;;;;;;;8.98;6.82;;;12.90;99.90;;;;;;7402155;19;19974;-77
2023/04/22 00:37:51;;;;;;;8.85;6.95;;;14.20;99.90;;;;;;7401925;19;19930;-77
2023/04/22 00:40:23;;;;;;;8.85;7.35;;;14.10;99.90;;;;;;7401447;19;19919;-76
2023/04/22 00:42:52;;;;;;;10.52;7.10;;;14.10;99.90;;;;;;7401184;19;19919;-77
2023/04/22 00:45:22;;;;;;;12.43;8.00;;;14.00;99.90;;;;;;7404290;19;19918;-76
2023/04/22 00:47:51;;;;;;;9.07;6.68;;;13.90;99.90;;;;;;7401723;19;19918;-78
2023/04/22 00:50:19;;;;;;;12.45;7.03;;;13.90;99.90;;;;;;7397694;19;19930;-76
2023/04/22 00:52:48;;;;;;;10.25;7.22;;;13.90;99.90;;;;;;7405145;19;19929;-76
2023/04/22 00:55:17;;;;;;;9.07;6.82;;;13.90;99.90;;;;;;7402215;19;19936;-76
2023/04/22 00:57:51;;;;;;;9.70;7.28;;;13.70;99.90;;;;;;7401367;19;19926;-76
2023/04/22 01:00:25;;;;;;;12.57;8.85;;;13.70;99.90;;;;;;7404751;19;19945;-77
2023/04/22 01:02:54;;;;;;;10.52;8.32;;;13.60;99.90;;;;;;7404989;19;20355;-77
2023/04/22 01:05:25;;;;;;;9.48;7.57;;;13.60;99.90;;;;;;7401548;19;19925;-77
2023/04/22 01:07:54;;;;;;;11.77;8.18;;;13.60;99.90;;;;;;7402284;19;19929;-77
2023/04/22 01:10:23;;;;;;;9.35;7.78;;;13.60;99.90;;;;;;7401804;19;19915;-76
2023/04/22 01:12:55;;;;;;;11.60;8.45;;;13.50;99.90;;;;;;7401098;19;20257;-78
2023/04/22 01:15:24;;;;;;;10.00;7.38;;;13.60;99.90;;;;;;7404756;19;19914;-76
2023/04/22 01:17:55;;;;;;;8.93;7.05;;;13.50;99.90;;;;;;7401259;19;19914;-76
2023/04/22 01:20:24;;;;;;;15.85;8.13;;;13.60;99.90;;;;;;7401215;19;19918;-77
2023/04/22 01:22:56;;;;;;;10.60;7.05;;;13.50;99.90;;;;;;7400990;19;19911;-76
2023/04/22 01:25:28;;;;;;;9.98;7.22;;;13.40;99.90;;;;;;7401256;19;19918;-77
2023/04/22 01:27:58;;;;;;;10.75;7.22;;;13.40;99.90;;;;;;7401496;19;19915;-76
2023/04/22 01:30:27;;;;;;;9.93;6.93;;;13.60;99.90;;;;;;7401547;19;19928;-76
2023/04/22 01:32:56;;;;;;;8.38;7.00;;;13.40;99.90;;;;;;7401033;19;19919;-76
2023/04/22 01:35:25;;;;;;;8.90;7.38;;;13.30;99.90;;;;;;7402308;19;20071;-77
2023/04/22 01:37:54;;;;;;;8.75;7.45;;;13.50;99.90;;;;;;7401077;19;19922;-77
2023/04/22 01:40:28;;;;;;;8.38;7.38;;;13.40;99.90;;;;;;7400908;19;19926;-76
2023/04/22 01:42:56;;;;;;;12.00;8.15;;;13.40;99.90;;;;;;7400262;19;19922;-76
2023/04/22 01:45:25;;;;;;;11.68;8.38;;;13.40;99.90;;;;;;7400723;19;19926;-77
2023/04/22 01:47:55;;;;;;;10.50;8.60;;;13.40;99.90;;;;;;7400471;19;19922;-76
2023/04/22 01:50:24;;;;;;;10.77;7.40;;;13.40;99.90;;;;;;7399634;19;19929;-76
2023/04/22 01:52:53;;;;;;;10.80;7.47;;;13.40;99.90;;;;;;7401953;19;19925;-76
2023/04/22 01:55:22;;;;;;;10.80;7.00;;;13.20;99.90;;;;;;7400494;19;20268;-77
2023/04/22 01:57:53;;;;;;;8.32;7.05;;;13.10;99.90;;;;;;7402097;19;19923;-76
2023/04/22 02:00:22;;;;;;;10.73;8.45;;;13.00;99.90;;;;;;7400466;19;19922;-76
2023/04/22 02:02:51;;;;;;;7.85;6.80;;;13.20;99.90;;;;;;7398287;19;19918;-76
2023/04/22 02:05:20;;;;;;;10.07;7.55;;;13.10;99.90;;;;;;7399974;19;19967;-76
2023/04/22 02:07:53;;;;;;;10.35;7.78;;;13.00;99.90;;;;;;7399964;19;19921;-77
2023/04/22 02:10:22;;;;;;;9.23;8.07;;;13.00;99.90;;;;;;7402865;19;19925;-76
2023/04/22 02:12:54;;;;;;;8.95;6.63;;;12.90;99.90;;;;;;7398902;19;20902;-76
2023/04/22 02:15:23;;;;;;;9.02;8.00;;;12.80;99.90;;;;;;7405190;19;19918;-76
2023/04/22 02:17:52;;;;;;;11.38;7.82;;;12.70;99.90;;;;;;7399969;19;19970;-76
2023/04/22 02:20:21;;;;;;;8.77;7.57;;;12.80;99.90;;;;;;7403920;19;19942;-76
2023/04/22 02:22:50;;;;;;;11.35;7.55;;;12.60;99.90;;;;;;7398424;19;20344;-76
2023/04/22 02:25:19;;;;;;;11.52;8.32;;;12.70;99.90;;;;;;7400216;19;19938;-77
2023/04/22 02:27:48;;;;;;;11.10;7.95;;;12.50;99.90;;;;;;7400625;19;19929;-76
2023/04/22 02:30:20;;;;;;;11.70;8.18;;;12.60;99.90;;;;;;7401464;19;19915;-76
2023/04/22 02:32:49;;;;;;;13.98;7.93;;;12.50;99.90;;;;;;7400310;19;19914;-76
2023/04/22 02:35:17;;;;;;;10.88;8.00;;;12.50;99.90;;;;;;7397189;19;20347;-76
2023/04/22 02:37:46;;;;;;;10.35;7.57;;;12.40;99.90;;;;;;7400525;19;19926;-77
2023/04/22 02:40:15;;;;;;;9.40;7.30;;;12.30;99.90;;;;;;7399198;19;19994;-76
2023/04/22 02:42:44;;;;;;;9.43;7.50;;;12.20;99.90;;;;;;7397238;19;19933;-76
2023/04/22 02:45:13;;;;;;;11.52;7.60;;;12.30;99.90;;;;;;7399025;19;19923;-77
2023/04/22 02:47:45;;;;;;;9.52;8.00;;;12.30;99.90;;;;;;7399256;19;19943;-77
2023/04/22 02:50:14;;;;;;;8.80;7.40;;;12.30;99.90;;;;;;7399205;19;20367;-76
2023/04/22 02:52:43;;;;;;;11.32;8.23;;;12.10;99.90;;;;;;7398235;19;19925;-76
2023/04/22 02:55:12;;;;;;;11.45;7.53;;;12.00;99.90;;;;;;7398976;19;19933;-76
2023/04/22 02:57:41;;;;;;;10.35;7.78;;;12.00;99.90;;;;;;7401009;19;19922;-76
2023/04/22 03:00:12;;;;;;;11.27;7.63;;;12.10;99.90;;;;;;7399329;19;19914;-76
2023/04/22 03:02:41;;;;;;;9.57;7.57;;;11.90;99.90;;;;;;7397404;19;19946;-76
2023/04/22 03:05:13;;;;;;;10.43;7.88;;;11.90;99.90;;;;;;7404401;19;19918;-77
2023/04/22 03:07:42;;;;;;;11.55;7.25;;;11.70;99.90;;;;;;7400035;19;20402;-77
2023/04/22 03:10:11;;;;;;;10.57;8.40;;;11.80;99.90;;;;;;7398330;19;19919;-76
2023/04/22 03:12:41;;;;;;;10.43;8.65;;;11.70;99.90;;;;;;7398061;19;19930;-76
2023/04/22 03:15:11;;;;;;;10.82;9.45;;;11.70;99.90;;;;;;7408027;19;19915;-77
2023/04/22 03:17:40;;;;;;;9.48;8.45;;;11.30;99.90;;;;;;7407032;19;19934;-76
2023/04/22 03:20:12;;;;;;;9.70;8.35;;;11.80;99.90;;;;;;7404309;19;19935;-76
2023/04/22 03:22:41;;;;;;;9.73;7.95;;;11.70;99.90;;;;;;7402086;19;19919;-77
2023/04/22 03:25:12;;;;;;;10.45;8.00;;;11.70;99.90;;;;;;7404028;19;19911;-75
2023/04/22 03:27:41;;;;;;;9.57;7.88;;;11.70;99.90;;;;;;7407899;19;19929;-76
2023/04/22 03:30:11;;;;;;;13.27;8.93;;;11.50;99.90;;;;;;7403983;19;20268;-76
2023/04/22 03:32:40;;;;;;;9.75;7.75;;;11.50;99.90;;;;;;7401514;19;19931;-76
2023/04/22 03:35:12;;;;;;;10.60;8.18;;;11.30;99.90;;;;;;7407282;19;19921;-76
2023/04/22 03:37:41;;;;;;;11.52;8.80;;;11.50;99.90;;;;;;7405006;19;20247;-76
2023/04/22 03:40:11;;;;;;;10.60;8.05;;;11.30;99.90;;;;;;7405326;19;19918;-75
2023/04/22 03:42:40;;;;;;;9.50;8.05;;;11.30;99.90;;;;;;7401114;19;20470;-76
2023/04/22 03:45:10;;;;;;;12.98;8.75;;;11.30;99.90;;;;;;7403654;19;19923;-75
2023/04/22 03:47:39;;;;;;;11.38;9.10;;;11.10;99.90;;;;;;7403179;19;19914;-76
2023/04/22 03:50:08;;;;;;;15.07;8.38;;;11.20;99.90;;;;;;7401391;19;19918;-75
2023/04/22 03:52:40;;;;;;;9.95;7.95;;;11.20;99.90;;;;;;7407444;19;19921;-75
2023/04/22 03:55:09;;;;;;;12.48;8.73;;;11.20;99.90;;;;;;7404609;19;19915;-75
2023/04/22 03:57:38;;;;;;;13.52;8.85;;;11.20;99.90;;;;;;7403236;19;19925;-75
2023/04/22 04:00:09;;;;;;;9.75;8.75;;;11.00;99.90;;;;;;7403112;19;19935;-75
2023/04/22 04:02:38;;;;;;;10.13;8.15;;;11.10;99.90;;;;;;7401571;19;19930;-75
2023/04/22 04:05:08;;;;;;;11.55;8.35;;;11.10;99.90;;;;;;7403296;19;19922;-75
2023/04/22 04:07:40;;;;;;;10.82;8.63;;;10.90;99.90;;;;;;7402836;19;19928;-75
2023/04/22 04:10:10;;;;;;;12.43;7.88;;;11.00;99.90;;;;;;7407519;19;20354;-75
2023/04/22 04:12:40;;;;;;;10.25;7.97;;;11.10;99.90;;;;;;7402325;19;19919;-75
2023/04/22 04:15:10;;;;;;;12.80;8.52;;;11.00;99.90;;;;;;7406987;19;19938;-75
2023/04/22 04:17:39;;;;;;;12.23;8.82;;;11.00;99.90;;;;;;7403045;19;20332;-75
2023/04/22 04:20:09;;;;;;;10.10;8.57;;;11.00;99.90;;;;;;7403218;19;19914;-75
2023/04/22 04:22:41;;;;;;;12.10;8.07;;;11.00;99.90;;;;;;7401920;19;19918;-75
2023/04/22 04:25:11;;;;;;;11.95;8.35;;;10.80;99.90;;;;;;7400204;19;19918;-75
2023/04/22 04:27:40;;;;;;;11.93;8.00;;;10.90;99.90;;;;;;7406128;19;19914;-75
2023/04/22 04:30:11;;;;;;;11.88;8.82;;;10.80;99.90;;;;;;7402183;19;19915;-75
2023/04/22 04:32:41;;;;;;;10.30;8.10;;;10.70;99.90;;;;;;7400376;19;19919;-75
2023/04/22 04:35:11;;;;;;;10.18;7.55;;;10.80;99.90;;;;;;7401720;19;19922;-75
2023/04/22 04:37:45;;;;;;;11.23;8.10;;;10.70;99.90;;;;;;7402229;19;19922;-75
2023/04/22 04:40:14;;;;;;;9.93;8.93;;;10.80;99.90;;;;;;7401409;19;19934;-75
2023/04/22 04:42:43;;;;;;;14.35;8.65;;;10.60;99.90;;;;;;7401826;19;19921;-75
2023/04/22 04:45:12;;;;;;;8.60;7.35;;;10.70;99.90;;;;;;7399996;19;19914;-75
2023/04/22 04:47:41;;;;;;;11.05;8.73;;;10.60;99.90;;;;;;7401862;19;20244;-76
2023/04/22 04:50:11;;;;;;;10.30;8.68;;;10.50;99.90;;;;;;7400073;19;19953;-75
2023/04/22 04:52:42;;;;;;;10.38;8.15;;;10.60;99.90;;;;;;7401594;19;20283;-76
2023/04/22 04:55:11;;;;;;;14.13;8.52;;;10.50;99.90;;;;;;7406106;19;19918;-76
2023/04/22 04:57:40;;;;;;;11.85;9.00;;;10.50;99.90;;;;;;7401449;19;19933;-76
2023/04/22 05:00:10;;;;;;;10.35;8.55;;;10.40;99.90;;;;;;7404093;19;19914;-76
2023/04/22 05:02:39;;;;;;;12.07;8.52;;;10.50;99.90;;;;;;7400019;19;20239;-75
2023/04/22 05:05:09;;;;;;;11.40;8.73;;;10.60;99.90;;;;;;7401364;19;19926;-75
2023/04/22 05:07:38;;;;;;;10.73;8.48;;;10.60;99.90;;;;;;7401163;19;19918;-75
2023/04/22 05:10:11;;;;;;;13.77;8.65;;;10.50;99.90;;;;;;7401493;19;19928;-75
2023/04/22 05:12:43;;;;;;;10.25;7.38;;;10.60;99.90;;;;;;7400857;19;19926;-76
2023/04/22 05:15:12;;;;;;;11.32;8.73;;;10.60;99.90;;;;;;7400920;19;19926;-75
2023/04/22 05:17:41;;;;;;;10.70;8.32;;;10.70;99.90;;;;;;7404529;19;20304;-75
2023/04/22 05:20:11;;;;;;;12.50;8.45;;;10.70;99.90;;;;;;7399325;19;20328;-75
2023/04/22 05:22:42;;;;;;;10.43;7.78;;;10.70;99.90;;;;;;7399822;19;19915;-75
2023/04/22 05:25:13;;;;;;;11.75;8.48;;;10.80;99.90;;;;;;7403920;19;19935;-76
2023/04/22 05:27:42;;;;;;;10.15;8.25;;;10.80;99.90;;;;;;7404160;19;19925;-75
2023/04/22 05:30:12;;;;;;;11.60;8.73;;;10.90;99.90;;;;;;7400261;19;19974;-77
2023/04/22 05:32:41;;;;;;;10.88;8.48;;;11.00;99.90;;;;;;7398841;19;20273;-77
2023/04/22 05:35:11;;;;;;;11.63;9.18;;;10.90;99.90;;;;;;7405951;19;20002;-76
2023/04/22 05:37:41;;;;;;;10.23;8.50;;;10.80;99.90;;;;;;7400081;19;19922;-76
2023/04/22 05:40:13;;;;;;;12.80;8.95;;;10.80;99.90;;;;;;7400146;19;20272;-77
2023/04/22 05:42:42;;;;;;;10.38;8.50;;;11.00;99.90;;;;;;7398929;19;19915;-77
2023/04/22 05:45:12;;;;;;;12.43;9.25;;;10.90;99.90;;;;;;7399816;19;19942;-76
2023/04/22 05:47:41;;;;;;;11.00;8.70;;;11.10;99.90;;;;;;7400983;19;20622;-76
2023/04/22 05:50:10;;;;;;;10.57;7.90;;;11.00;99.90;;;;;;7400200;19;19922;-76
2023/04/22 05:52:39;;;;;;;10.27;8.68;;;11.20;99.90;;;;;;7401657;19;20303;-76
2023/04/22 05:55:09;;;;;;;13.02;8.20;;;11.10;99.90;;;;;;7400881;19;19987;-76
2023/04/22 05:57:41;;;;;;;11.63;9.13;;;11.20;99.90;;;;;;7400130;19;20246;-77
2023/04/22 06:00:11;;;;;;;11.25;8.52;;;11.30;99.90;;;;;;7399455;19;19925;-77
2023/04/22 06:02:40;;;;;;;9.13;8.18;;;11.30;99.90;;;;;;7404061;19;19922;-76
2023/04/22 06:05:10;;;;;;;10.98;8.60;;;11.50;99.90;;;;;;7404039;19;19938;-76
2023/04/22 06:07:39;;;;;;;11.98;8.52;;;11.60;99.90;;;;;;7402922;19;20346;-76
2023/04/22 06:10:10;;;;;;;12.88;8.52;;;11.50;99.90;;;;;;7399663;19;19918;-76
2023/04/22 06:12:42;;;;;;;10.48;9.10;;;11.70;99.90;;;;;;7399815;19;19910;-76
2023/04/22 06:15:13;;;;;;;9.52;8.30;;;11.70;99.90;;;;;;7400651;19;19911;-76
2023/04/22 06:17:43;;;;;;;9.05;7.57;;;11.90;99.90;;;;;;7401201;19;19918;-76
2023/04/22 06:20:13;;;;;;;18.75;8.80;;;11.90;99.90;;;;;;7399966;19;19911;-75
2023/04/22 06:22:42;;;;;;;11.00;9.10;;;11.80;99.90;;;;;;7399677;19;20583;-75
2023/04/22 06:25:12;;;;;;;11.35;8.70;;;11.90;99.90;;;;;;7402191;19;19970;-76
2023/04/22 06:27:43;;;;;;;9.68;8.18;;;11.90;99.90;;;;;;7402817;19;19921;-75
2023/04/22 06:30:13;;;;;;;13.35;8.52;;;12.00;99.90;;;;;;7399651;19;20027;-75
2023/04/22 06:32:41;;;;;;;11.18;8.25;;;12.40;99.90;;;;;;7398292;19;19929;-75
2023/04/22 06:35:11;;;;;;;10.82;8.23;;;12.00;99.90;;;;;;7400319;19;19914;-75
2023/04/22 06:37:40;;;;;;;13.80;8.40;;;11.90;99.90;;;;;;7399359;19;20343;-76
2023/04/22 06:40:10;;;;;;;11.65;8.60;;;12.00;99.90;;;;;;7399001;19;19918;-75
2023/04/22 06:42:39;;;;;;;12.52;7.70;;;12.10;99.90;;;;;;7401941;19;20744;-75
2023/04/22 06:45:12;;;;;;;15.30;8.43;;;12.00;99.90;;;;;;7398314;19;20362;-75
2023/04/22 06:47:41;;;;;;;12.30;9.25;;;12.20;99.90;;;;;;7396612;19;20283;-76
2023/04/22 06:50:11;;;;;;;12.15;8.85;;;12.10;99.90;;;;;;7397711;19;19931;-76
2023/04/22 06:52:40;;;;;;;12.75;8.60;;;12.20;99.90;;;;;;7398362;19;19915;-75
2023/04/22 06:55:10;;;;;;;10.30;8.65;;;12.50;99.90;;;;;;7397958;19;19948;-75
2023/04/22 06:57:39;;;;;;;11.70;8.50;;;12.30;99.90;;;;;;7398273;19;19921;-75
2023/04/22 07:00:12;;;;;;;13.77;7.78;;;12.30;99.90;;;;;;7403555;19;19925;-76
2023/04/22 07:02:40;;;;;;;11.63;8.88;;;12.40;99.90;;;;;;7398344;19;19915;-75
2023/04/22 07:05:10;;;;;;;11.32;8.15;;;12.50;99.90;;;;;;7399329;19;19915;-75
2023/04/22 07:07:41;;;;;;;11.77;7.80;;;12.40;99.90;;;;;;7397918;19;19929;-75
2023/04/22 07:10:10;;;;;;;12.35;7.57;;;12.40;99.90;;;;;;7398370;19;19926;-75
2023/04/22 07:12:39;;;;;;;11.25;7.80;;;12.60;99.90;;;;;;7398055;19;19926;-75
2023/04/22 07:15:12;;;;;;;11.57;7.88;;;12.60;99.90;;;;;;7401676;19;19937;-75
2023/04/22 07:17:41;;;;;;;15.45;8.93;;;12.60;99.90;;;;;;7397989;19;20629;-76
2023/04/22 07:20:12;;;;;;;12.32;8.38;;;12.80;99.90;;;;;;7397530;19;20011;-76
2023/04/22 07:22:41;;;;;;;12.55;7.93;;;12.60;99.90;;;;;;7397784;19;19919;-75
2023/04/22 07:25:10;;;;;;;11.57;7.97;;;12.70;99.90;;;;;;7395585;19;19919;-75
2023/04/22 07:27:39;;;;;;;11.32;7.97;;;12.80;99.90;;;;;;7401526;19;19930;-77
2023/04/22 07:30:14;;;;;;;11.38;7.88;;;12.70;99.90;;;;;;7397266;19;20375;-76
2023/04/22 07:32:43;;;;;;;9.77;7.22;;;13.00;99.90;;;;;;7397595;19;19942;-76
2023/04/22 07:35:12;;;;;;;10.75;7.93;;;13.00;99.90;;;;;;7395790;19;19946;-76
2023/04/22 07:37:41;;;;;;;10.50;7.10;;;13.10;99.90;;;;;;7396995;19;19929;-76
2023/04/22 07:40:12;;;;;;;12.20;7.03;;;13.10;99.90;;;;;;7397280;19;19954;-76
2023/04/22 07:42:41;;;;;;;8.60;7.00;;;12.30;99.90;;;;;;7397027;19;19915;-76
2023/04/22 07:45:13;;;;;;;10.40;7.40;;;13.20;99.90;;;;;;7397064;19;19922;-77
2023/04/22 07:47:42;;;;;;;10.38;7.57;;;13.20;99.90;;;;;;7397056;19;20447;-76
2023/04/22 07:50:12;;;;;;;9.95;6.93;;;13.30;99.90;;;;;;7398299;19;19922;-76
2023/04/22 07:52:41;;;;;;;9.23;7.15;;;13.20;99.90;;;;;;7397100;19;19915;-76
2023/04/22 07:55:11;;;;;;;9.95;7.03;;;13.20;99.90;;;;;;7396118;19;19923;-76
2023/04/22 07:57:40;;;;;;;9.57;6.95;;;13.30;99.90;;;;;;7396567;19;19918;-76
2023/04/22 08:00:13;;;;;;;10.95;6.72;;;13.50;99.90;;;;;;7400215;19;20641;-77
2023/04/22 08:02:42;;;;;;;11.93;6.75;;;13.40;99.90;;;;;;7402886;19;19946;-77
2023/04/22 08:05:12;;;;;;;9.65;6.57;;;13.40;99.90;;;;;;7403368;19;20271;-77
2023/04/22 08:07:41;;;;;;;11.48;6.05;;;13.60;99.90;;;;;;7406318;19;19985;-75
2023/04/22 08:10:11;;;;;;;8.32;6.40;;;13.60;99.90;;;;;;7402788;19;19928;-75
2023/04/22 08:12:40;;;;;;;8.25;6.28;;;13.60;99.90;;;;;;7402674;19;19919;-75
2023/04/22 08:15:10;;;;;;;7.88;6.00;;;13.70;99.90;;;;;;7407044;19;19914;-76
2023/04/22 08:17:41;;;;;;;7.88;6.70;;;13.80;99.90;;;;;;7402721;19;19910;-75
2023/04/22 08:20:14;;;;;;;9.00;6.40;;;13.70;99.90;;;;;;7402668;19;19937;-76
2023/04/22 08:22:43;;;;;;;10.20;6.47;;;14.00;99.90;;;;;;7402787;19;19937;-75
2023/04/22 08:25:12;;;;;;;10.43;6.03;;;13.90;99.90;;;;;;7402392;19;20404;-75
2023/04/22 08:27:41;;;;;;;7.95;5.95;;;14.00;99.90;;;;;;7402885;19;19914;-75
2023/04/22 08:30:11;;;;;;;7.65;5.40;;;14.10;99.90;;;;;;7402500;19;19995;-75
2023/04/22 08:32:43;;;;;;;6.63;5.38;;;14.20;99.90;;;;;;7401593;19;20236;-75
2023/04/22 08:35:12;;;;;;;10.05;6.38;;;14.20;99.90;;;;;;7401739;19;19932;-75
2023/04/22 08:37:42;;;;;;;7.50;5.30;;;14.30;99.90;;;;;;7402496;19;20302;-76
2023/04/22 08:40:11;;;;;;;5.60;4.80;;;14.60;99.90;;;;;;7403356;19;19922;-75
2023/04/22 08:42:41;;;;;;;7.68;5.95;;;14.50;99.90;;;;;;7404018;19;19911;-76
2023/04/22 08:45:11;;;;;;;7.07;5.63;;;14.50;99.90;;;;;;7402243;19;19919;-76
2023/04/22 08:47:44;;;;;;;6.78;5.60;;;14.70;99.90;;;;;;7404185;19;19918;-77
2023/04/22 08:50:13;;;;;;;5.78;5.18;;;14.70;99.90;;;;;;7401800;19;19937;-76
2023/04/22 08:52:44;;;;;;;8.55;5.40;;;14.70;99.90;;;;;;7402306;19;19929;-76
2023/04/22 08:55:13;;;;;;;6.35;5.10;;;14.80;99.90;;;;;;7401833;19;19915;-76
2023/04/22 08:57:42;;;;;;;7.10;5.00;;;14.90;99.90;;;;;;7403358;19;19915;-76
2023/04/22 09:00:13;;;;;;;7.32;4.60;;;14.80;99.90;;;;;;7402032;19;20300;-76
2023/04/22 09:02:49;;;;;;;9.32;4.95;;;15.00;99.90;;;;;;7401993;19;20317;-77
2023/04/22 09:05:18;;;;;;;7.93;5.00;;;15.10;99.90;;;;;;7399525;19;19929;-75
2023/04/22 09:07:47;;;;;;;8.10;4.90;;;15.10;99.90;;;;;;7402197;19;20319;-76
2023/04/22 09:10:16;;;;;;;6.70;4.55;;;15.20;99.90;;;;;;7399166;19;19918;-76
2023/04/22 09:12:45;;;;;;;7.07;4.93;;;15.20;99.90;;;;;;7399886;19;19930;-76
2023/04/22 09:15:14;;;;;;;6.10;4.93;;;15.30;99.90;;;;;;7403954;19;19925;-75
2023/04/22 09:17:46;;;;;;;9.32;4.93;;;15.30;99.90;;;;;;7401547;19;19962;-76
2023/04/22 09:20:16;;;;;;;5.22;4.63;;;15.30;99.90;;;;;;7401484;19;19944;-76
2023/04/22 09:22:48;;;;;;;7.47;5.47;;;15.20;99.90;;;;;;7401233;19;19937;-76
2023/04/22 09:25:17;;;;;;;;;;;15.40;99.90;;;;;;7401979;19;19923;-76
2023/04/22 09:27:51;;;;;;;6.28;4.88;;;15.50;99.90;;;;;;7402932;19;19930;-76
2023/04/22 09:30:24;;;;;;;6.88;5.38;;;15.60;99.90;;;;;;7402753;19;19918;-76
2023/04/22 09:33:00;;;;;;;7.45;5.45;;;15.80;99.90;;;;;;7405055;19;19911;-76
2023/04/22 09:35:31;;;;;;;5.97;4.88;;;15.80;99.90;;;;;;7400575;19;19922;-75
2023/04/22 09:38:01;;;;;;;8.23;4.18;;;16.00;99.90;;;;;;7400783;19;20382;-76
2023/04/22 09:40:30;;;;;;;6.65;5.18;;;16.00;99.90;;;;;;7400198;19;19974;-77
2023/04/22 09:43:01;;;;;;;5.78;4.63;;;16.10;99.90;;;;;;7400293;19;19919;-76
2023/04/22 09:45:31;;;;;;;6.63;4.95;;;16.20;99.90;;;;;;7398275;19;19978;-75
2023/04/22 09:48:09;;;;;;;7.25;4.93;;;16.20;99.90;;;;;;7403753;19;19919;-75
2023/04/22 09:50:39;;;;;;;5.70;4.75;;;16.20;99.90;;;;;;7398387;19;19943;-75
2023/04/22 09:53:11;;;;;;;4.78;3.80;;;16.40;99.90;;;;;;7400195;19;19922;-74
2023/04/22 09:55:40;;;;;;;;;;;16.40;99.90;;;;;;7402830;19;19911;-75
2023/04/22 09:58:11;;;;;;;4.68;3.75;;;16.60;99.90;;;;;;7403263;19;20014;-75
2023/04/22 10:00:43;;;;;;;5.93;3.50;;;16.70;99.90;;;;;;7401043;19;19918;-75
2023/04/22 10:03:15;;;;;;;5.15;3.67;;;16.90;99.90;;;;;;7399154;19;19911;-76
2023/04/22 10:05:45;;;;;;;6.03;4.03;;;17.00;99.90;;;;;;7401250;19;19918;-76
2023/04/22 10:08:15;;;;;;;5.97;3.60;;;17.30;99.90;;;;;;7401167;19;19946;-76
2023/04/22 10:10:45;;;;;;;5.03;3.90;;;17.50;99.90;;;;;;7398798;19;19922;-76
2023/04/22 10:13:14;;;;;;;5.90;4.25;;;17.50;99.90;;;;;;7400226;19;19923;-75
2023/04/22 10:15:47;;;;;;;4.55;3.20;;;17.70;99.90;;;;;;7403341;19;20270;-75
2023/04/22 10:18:22;;;;;;;4.63;3.05;;;17.80;99.90;;;;;;7399017;19;20343;-76
2023/04/22 10:20:52;;;;;;;4.22;3.25;;;17.90;99.90;;;;;;7398889;19;19932;-76
2023/04/22 10:23:24;;;;;;;5.00;3.17;;;17.80;99.90;;;;;;7398088;19;19919;-76
2023/04/22 10:25:56;;;;;;;3.60;3.13;;;18.10;99.90;;;;;;7399742;19;19923;-76
2023/04/22 10:28:29;;;;;;;4.43;3.50;;;18.10;99.90;;;;;;7398845;19;19925;-76
2023/04/22 10:30:58;;;;;;;6.10;3.80;;;18.10;99.90;;;;;;7398922;19;19922;-75
2023/04/22 10:33:43;;;;;;;4.63;3.33;;;18.30;99.90;;;;;;7398439;19;19954;-76
2023/04/22 10:36:17;;;;;;;4.95;3.83;;;18.40;99.90;;;;;;7398665;19;19923;-76
2023/04/22 10:39:17;;;;;;;7.93;3.78;;;18.30;99.90;;;;;;7399107;19;20248;-76
2023/04/22 10:41:52;;;;;;;;;;;18.30;99.90;;;;;;7400802;19;19926;-76
2023/04/22 10:44:23;;;;;;;3.67;3.20;;;18.40;99.90;;;;;;7398230;19;19998;-76
2023/04/22 10:47:02;;;;;;;4.60;3.50;;;18.40;99.90;;;;;;7403078;19;19926;-76
2023/04/22 10:49:34;;;;;;;4.80;3.65;;;18.40;99.90;;;;;;7398416;19;19944;-76
2023/04/22 10:52:04;;;;;;;5.57;3.20;;;18.50;99.90;;;;;;7398884;19;19933;-76
2023/04/22 10:55:03;;;;;;;3.97;3.00;;;18.70;99.90;;;;;;7398737;19;19919;-76
2023/04/22 10:57:41;;;;;;;4.32;3.20;;;18.70;99.90;;;;;;7403321;19;19917;-76
2023/04/22 11:00:41;;;;;;;4.22;3.75;;;18.70;99.90;;;;;;7399509;19;19946;-76
2023/04/22 11:03:19;;;;;;;6.70;3.40;;;18.80;99.90;;;;;;7399109;19;19918;-77
2023/04/22 11:05:50;;;;;;;3.67;2.97;;;19.00;99.90;;;;;;7396216;19;20009;-77
2023/04/22 11:08:22;;;;;;;4.93;2.88;;;19.00;99.90;;;;;;7400066;19;19914;-76
2023/04/22 11:10:54;;;;;;;4.55;2.80;;;18.90;99.90;;;;;;7397600;19;19923;-76
2023/04/22 11:13:23;;;;;;;4.05;3.40;;;19.10;99.90;;;;;;7398533;19;19929;-76
2023/04/22 11:15:55;;;;;;;4.60;2.90;;;19.00;99.90;;;;;;7402369;19;20270;-75
2023/04/22 11:18:27;;;;;;;4.97;3.20;;;19.40;99.90;;;;;;7397636;19;19926;-75
2023/04/22 11:21:07;;;;;;;4.05;2.28;;;19.30;99.90;;;;;;7396874;19;19919;-76
2023/04/22 11:23:36;;;;;;;6.05;2.22;;;19.30;99.90;;;;;;7397258;19;20326;-75
2023/04/22 11:26:07;;;;;;;2.50;2.30;;;19.40;99.90;;;;;;7394399;19;19925;-76
2023/04/22 11:28:36;;;;;;;3.72;2.55;;;19.50;99.90;;;;;;7397137;19;19919;-76
2023/04/22 11:31:08;;;;;;;3.45;2.40;;;19.40;99.90;;;;;;7398963;19;19930;-76
2023/04/22 11:33:38;;;;;;;4.55;2.75;;;19.40;99.90;;;;;;7397028;19;20266;-76
2023/04/22 11:36:12;;;;;;;4.25;2.47;;;19.60;99.90;;;;;;7404057;19;19954;-76
2023/04/22 11:38:41;;;;;;;5.35;3.00;;;19.60;99.90;;;;;;7403629;19;19923;-77
2023/04/22 11:41:10;;;;;;;3.88;2.92;;;19.40;99.90;;;;;;7403375;19;19918;-77
2023/04/22 11:43:48;;;;;;;4.30;2.67;;;19.70;99.90;;;;;;7404144;19;20252;-77
2023/04/22 11:46:17;;;;;;;4.40;3.13;;;19.70;99.90;;;;;;7401078;19;20538;-77
2023/04/22 11:48:46;;;;;;;5.68;3.05;;;19.70;99.90;;;;;;7407549;19;19914;-77
2023/04/22 11:51:17;;;;;;;4.20;2.80;;;19.60;99.90;;;;;;7400749;19;19925;-77
2023/04/22 11:53:51;;;;;;;;;;;19.80;99.90;;;;;;7405945;19;19918;-76
2023/04/22 11:56:20;;;;;;;5.60;3.20;;;20.10;99.90;;;;;;7404265;19;20010;-77
2023/04/22 11:58:49;;;;;;;5.70;3.22;;;20.20;99.90;;;;;;7403616;19;19919;-77
2023/04/22 12:01:19;;;;;;;5.07;2.95;;;20.20;99.90;;;;;;7403506;19;19919;-76
2023/04/22 12:03:50;;;;;;;4.57;3.13;;;20.20;99.90;;;;;;7403951;19;19925;-76
2023/04/22 12:06:21;;;;;;;5.05;3.58;;;20.50;99.90;;;;;;7400816;19;19918;-77
2023/04/22 12:08:54;;;;;;;4.55;2.92;;;20.50;99.90;;;;;;7406423;19;19922;-77
2023/04/22 12:11:23;;;;;;;6.15;3.10;;;20.60;99.90;;;;;;7404131;19;19918;-77
2023/04/22 12:13:53;;;;;;;3.38;2.88;;;20.70;99.90;;;;;;7403028;19;19971;-76
2023/04/22 12:16:22;;;;;;;3.28;2.78;;;20.80;99.90;;;;;;7405575;19;20256;-76
2023/04/22 12:18:52;;;;;;;5.18;2.95;;;20.80;99.90;;;;;;7404167;19;20314;-77
2023/04/22 12:21:27;;;;;;;6.90;3.08;;;21.00;99.90;;;;;;7404682;19;19918;-77
2023/04/22 12:23:57;;;;;;;6.07;3.60;;;20.90;99.90;;;;;;7403300;19;19915;-77
2023/04/22 12:26:28;;;;;;;4.38;3.20;;;21.00;99.90;;;;;;7400239;19;19919;-77
2023/04/22 12:28:58;;;;;;;4.32;3.40;;;20.90;99.90;;;;;;7402858;19;19915;-77
2023/04/22 12:31:28;;;;;;;5.60;3.03;;;20.80;99.90;;;;;;7402268;19;19914;-77
2023/04/22 12:33:58;;;;;;;4.38;2.67;;;20.70;99.90;;;;;;7403267;19;20485;-76
2023/04/22 12:36:31;;;;;;;3.90;2.60;;;20.90;99.90;;;;;;7402858;19;19911;-77
2023/04/22 12:39:00;;;;;;;4.93;3.22;;;20.80;99.90;;;;;;7404848;19;19914;-77
2023/04/22 12:41:29;;;;;;;4.72;3.05;;;20.30;99.90;;;;;;7403678;19;19914;-77
2023/04/22 12:43:58;;;;;;;5.38;3.30;;;20.70;99.90;;;;;;7407519;19;19910;-77
2023/04/22 12:46:27;;;;;;;4.03;3.20;;;20.30;99.90;;;;;;7397966;19;20035;-77
2023/04/22 12:48:56;;;;;;;4.38;3.65;;;20.30;99.90;;;;;;7402356;19;20363;-76
2023/04/22 12:51:26;;;;;;;4.32;3.63;;;20.00;99.90;;;;;;7399431;19;20367;-77
2023/04/22 12:53:58;;;;;;;5.10;2.90;;;20.00;99.90;;;;;;7401558;19;19915;-77
2023/04/22 12:56:28;;;;;;;7.00;3.90;;;19.80;99.90;;;;;;7405256;19;19914;-77
2023/04/22 12:59:01;;;;;;;4.75;3.58;;;19.70;99.90;;;;;;7402176;19;19918;-76